Arden, New York
Current Conditions -  °F | °C
As of 6:45 AM on Monday 22 Dec 2014 (Local Time) from KSWF Reporting Station
Overcast Overcast  
Wind Chill: 25°   Ceiling: 1100
Heat Index: 30°   Visibility: 8mi
Dew Point: 30°   Wind: 5mph
Humidity: 100%   Direction: NA
Pressure: 30.33"   Gusts: NA
Location:  41.27°N, 74.15°W
Report Text: KSWF 221145Z VRB04KT 8SM OVC011 M01/M01 A3033
Loading
Personal Weather Stations






























Interactive Weather Map New forecast layout! Learn more

10-Day Weather Forecast

Advertisements
Track Severe Weather on mobile